sensor_id;sensor_type;location;lat;lon;timestamp;temperature;humidity
32201;DHT22;18701;45.588;5.288;2024-02-21T00:01:39;6.90;99.90
32201;DHT22;18701;45.588;5.288;2024-02-21T00:04:05;7.00;99.90
32201;DHT22;18701;45.588;5.288;2024-02-21T00:06:31;7.00;99.90
32201;DHT22;18701;45.588;5.288;2024-02-21T00:08:57;6.90;99.90
32201;DHT22;18701;45.588;5.288;2024-02-21T00:11:22;7.00;99.90
32201;DHT22;18701;45.588;5.288;2024-02-21T00:13:48;6.90;99.90
32201;DHT22;18701;45.588;5.288;2024-02-21T00:16:13;7.00;99.90
32201;DHT22;18701;45.588;5.288;2024-02-21T00:18:41;7.00;99.90
32201;DHT22;18701;45.588;5.288;2024-02-21T00:21:06;7.00;99.90
32201;DHT22;18701;45.588;5.288;2024-02-21T00:23:32;6.90;99.90
32201;DHT22;18701;45.588;5.288;2024-02-21T00:25:58;6.90;99.90
32201;DHT22;18701;45.588;5.288;2024-02-21T00:28:23;6.70;99.90
32201;DHT22;18701;45.588;5.288;2024-02-21T00:30:49;6.80;99.90
32201;DHT22;18701;45.588;5.288;2024-02-21T00:33:16;6.80;99.90
32201;DHT22;18701;45.588;5.288;2024-02-21T00:35:42;6.60;99.90
32201;DHT22;18701;45.588;5.288;2024-02-21T00:38:08;6.70;99.90
32201;DHT22;18701;45.588;5.288;2024-02-21T00:40:34;6.70;99.90
32201;DHT22;18701;45.588;5.288;2024-02-21T00:43:00;6.50;99.90
32201;DHT22;18701;45.588;5.288;2024-02-21T00:45:26;6.50;99.90
32201;DHT22;18701;45.588;5.288;2024-02-21T00:47:51;6.70;99.90
32201;DHT22;18701;45.588;5.288;2024-02-21T00:50:17;6.70;99.90
32201;DHT22;18701;45.588;5.288;2024-02-21T00:52:42;6.80;99.90
32201;DHT22;18701;45.588;5.288;2024-02-21T00:55:08;6.70;99.90
32201;DHT22;18701;45.588;5.288;2024-02-21T00:57:34;6.70;99.90
32201;DHT22;18701;45.588;5.288;2024-02-21T01:00:01;6.70;99.90
32201;DHT22;18701;45.588;5.288;2024-02-21T01:02:26;6.70;99.90
32201;DHT22;18701;45.588;5.288;2024-02-21T01:04:52;6.80;99.90
32201;DHT22;18701;45.588;5.288;2024-02-21T01:07:18;6.80;99.90
32201;DHT22;18701;45.588;5.288;2024-02-21T01:09:43;6.70;99.90
32201;DHT22;18701;45.588;5.288;2024-02-21T01:12:09;6.80;99.90
32201;DHT22;18701;45.588;5.288;2024-02-21T01:14:35;6.80;99.90
32201;DHT22;18701;45.588;5.288;2024-02-21T01:17:00;6.80;99.90
32201;DHT22;18701;45.588;5.288;2024-02-21T01:19:26;6.80;99.90
32201;DHT22;18701;45.588;5.288;2024-02-21T01:21:52;6.80;99.90
32201;DHT22;18701;45.588;5.288;2024-02-21T01:24:17;6.80;99.90
32201;DHT22;18701;45.588;5.288;2024-02-21T01:26:43;6.80;99.90
32201;DHT22;18701;45.588;5.288;2024-02-21T01:29:09;6.70;99.90
32201;DHT22;18701;45.588;5.288;2024-02-21T01:31:34;6.70;99.90
32201;DHT22;18701;45.588;5.288;2024-02-21T01:34:00;6.60;99.90
32201;DHT22;18701;45.588;5.288;2024-02-21T01:36:25;6.70;99.90
32201;DHT22;18701;45.588;5.288;2024-02-21T01:38:51;6.40;99.90
32201;DHT22;18701;45.588;5.288;2024-02-21T01:41:16;6.60;99.90
32201;DHT22;18701;45.588;5.288;2024-02-21T01:43:42;6.60;99.90
32201;DHT22;18701;45.588;5.288;2024-02-21T01:46:08;6.60;99.90
32201;DHT22;18701;45.588;5.288;2024-02-21T01:48:34;6.40;99.90
32201;DHT22;18701;45.588;5.288;2024-02-21T01:51:00;6.30;99.90
32201;DHT22;18701;45.588;5.288;2024-02-21T01:53:34;6.40;99.90
32201;DHT22;18701;45.588;5.288;2024-02-21T01:56:00;6.50;99.90
32201;DHT22;18701;45.588;5.288;2024-02-21T01:58:27;6.40;99.90
32201;DHT22;18701;45.588;5.288;2024-02-21T02:00:56;6.30;99.90
32201;DHT22;18701;45.588;5.288;2024-02-21T02:03:22;6.40;99.90
32201;DHT22;18701;45.588;5.288;2024-02-21T02:05:49;6.20;99.90
32201;DHT22;18701;45.588;5.288;2024-02-21T02:08:19;6.40;99.90
32201;DHT22;18701;45.588;5.288;2024-02-21T02:10:45;6.40;99.90
32201;DHT22;18701;45.588;5.288;2024-02-21T02:13:14;6.40;99.90
32201;DHT22;18701;45.588;5.288;2024-02-21T02:18:08;6.40;99.90
32201;DHT22;18701;45.588;5.288;2024-02-21T02:20:35;6.30;99.90
32201;DHT22;18701;45.588;5.288;2024-02-21T02:23:07;6.30;99.90
32201;DHT22;18701;45.588;5.288;2024-02-21T02:25:34;6.20;99.90
32201;DHT22;18701;45.588;5.288;2024-02-21T02:28:00;6.30;99.90
32201;DHT22;18701;45.588;5.288;2024-02-21T02:30:25;6.20;99.90
32201;DHT22;18701;45.588;5.288;2024-02-21T02:32:51;6.30;99.90
32201;DHT22;18701;45.588;5.288;2024-02-21T02:35:16;6.10;99.90
32201;DHT22;18701;45.588;5.288;2024-02-21T02:37:48;6.00;99.90
32201;DHT22;18701;45.588;5.288;2024-02-21T02:40:14;6.20;99.90
32201;DHT22;18701;45.588;5.288;2024-02-21T02:42:40;6.30;99.90
32201;DHT22;18701;45.588;5.288;2024-02-21T02:45:06;6.20;99.90
32201;DHT22;18701;45.588;5.288;2024-02-21T02:47:32;6.10;99.90
32201;DHT22;18701;45.588;5.288;2024-02-21T02:50:00;6.10;99.90
32201;DHT22;18701;45.588;5.288;2024-02-21T02:52:25;6.00;99.90
32201;DHT22;18701;45.588;5.288;2024-02-21T02:54:51;6.00;99.90
32201;DHT22;18701;45.588;5.288;2024-02-21T02:57:18;6.00;99.90
32201;DHT22;18701;45.588;5.288;2024-02-21T02:59:50;6.10;99.90
32201;DHT22;18701;45.588;5.288;2024-02-21T03:02:16;6.10;99.90
32201;DHT22;18701;45.588;5.288;2024-02-21T03:04:45;6.00;99.90
32201;DHT22;18701;45.588;5.288;2024-02-21T03:07:11;6.10;99.90
32201;DHT22;18701;45.588;5.288;2024-02-21T03:09:37;6.10;99.90
32201;DHT22;18701;45.588;5.288;2024-02-21T03:12:04;6.00;99.90
32201;DHT22;18701;45.588;5.288;2024-02-21T03:14:30;6.10;99.90
32201;DHT22;18701;45.588;5.288;2024-02-21T03:16:56;6.00;99.90
32201;DHT22;18701;45.588;5.288;2024-02-21T03:19:22;5.90;99.90
32201;DHT22;18701;45.588;5.288;2024-02-21T03:21:48;6.00;99.90
32201;DHT22;18701;45.588;5.288;2024-02-21T03:24:15;6.00;99.90
32201;DHT22;18701;45.588;5.288;2024-02-21T03:26:41;6.00;99.90
32201;DHT22;18701;45.588;5.288;2024-02-21T03:29:07;5.90;99.90
32201;DHT22;18701;45.588;5.288;2024-02-21T03:31:33;6.00;99.90
32201;DHT22;18701;45.588;5.288;2024-02-21T03:33:58;6.00;99.90
32201;DHT22;18701;45.588;5.288;2024-02-21T03:36:24;6.00;99.90
32201;DHT22;18701;45.588;5.288;2024-02-21T03:38:49;5.80;99.90
32201;DHT22;18701;45.588;5.288;2024-02-21T03:41:15;5.90;99.90
32201;DHT22;18701;45.588;5.288;2024-02-21T03:43:40;5.80;99.90
32201;DHT22;18701;45.588;5.288;2024-02-21T03:46:06;5.80;99.90
32201;DHT22;18701;45.588;5.288;2024-02-21T03:48:32;5.80;99.90
32201;DHT22;18701;45.588;5.288;2024-02-21T03:50:58;5.80;99.90
32201;DHT22;18701;45.588;5.288;2024-02-21T03:53:24;6.00;99.90
32201;DHT22;18701;45.588;5.288;2024-02-21T03:55:50;6.00;99.90
32201;DHT22;18701;45.588;5.288;2024-02-21T03:58:15;6.00;99.90
32201;DHT22;18701;45.588;5.288;2024-02-21T04:00:41;6.10;99.90
32201;DHT22;18701;45.588;5.288;2024-02-21T04:03:06;6.00;99.90
32201;DHT22;18701;45.588;5.288;2024-02-21T04:05:32;6.00;99.90
32201;DHT22;18701;45.588;5.288;2024-02-21T04:07:58;5.90;99.90
32201;DHT22;18701;45.588;5.288;2024-02-21T04:10:24;5.90;99.90
32201;DHT22;18701;45.588;5.288;2024-02-21T04:12:49;5.80;99.90
32201;DHT22;18701;45.588;5.288;2024-02-21T04:15:16;5.90;99.90
32201;DHT22;18701;45.588;5.288;2024-02-21T04:17:42;5.90;99.90
32201;DHT22;18701;45.588;5.288;2024-02-21T04:20:14;5.90;99.90
32201;DHT22;18701;45.588;5.288;2024-02-21T04:22:40;6.00;99.90
32201;DHT22;18701;45.588;5.288;2024-02-21T04:25:06;6.00;99.90
32201;DHT22;18701;45.588;5.288;2024-02-21T04:27:32;6.00;99.90
32201;DHT22;18701;45.588;5.288;2024-02-21T04:29:57;6.00;99.90
32201;DHT22;18701;45.588;5.288;2024-02-21T04:32:23;5.90;99.90
32201;DHT22;18701;45.588;5.288;2024-02-21T04:34:49;6.00;99.90
32201;DHT22;18701;45.588;5.288;2024-02-21T04:37:14;5.90;99.90
32201;DHT22;18701;45.588;5.288;2024-02-21T04:39:40;5.60;99.90
32201;DHT22;18701;45.588;5.288;2024-02-21T04:42:06;5.60;99.90
32201;DHT22;18701;45.588;5.288;2024-02-21T04:44:31;5.70;99.90
32201;DHT22;18701;45.588;5.288;2024-02-21T04:46:57;5.80;99.90
32201;DHT22;18701;45.588;5.288;2024-02-21T04:49:22;5.80;99.90
32201;DHT22;18701;45.588;5.288;2024-02-21T04:51:48;5.70;99.90
32201;DHT22;18701;45.588;5.288;2024-02-21T04:54:13;5.70;99.90
32201;DHT22;18701;45.588;5.288;2024-02-21T04:56:39;5.70;99.90
32201;DHT22;18701;45.588;5.288;2024-02-21T04:59:05;5.80;99.90
32201;DHT22;18701;45.588;5.288;2024-02-21T05:01:30;5.80;99.90
32201;DHT22;18701;45.588;5.288;2024-02-21T05:03:56;5.90;99.90
32201;DHT22;18701;45.588;5.288;2024-02-21T05:06:22;5.70;99.90
32201;DHT22;18701;45.588;5.288;2024-02-21T05:08:47;5.60;99.90
32201;DHT22;18701;45.588;5.288;2024-02-21T05:11:13;5.50;99.90
32201;DHT22;18701;45.588;5.288;2024-02-21T05:13:39;5.50;99.90
32201;DHT22;18701;45.588;5.288;2024-02-21T05:16:05;5.50;99.90
32201;DHT22;18701;45.588;5.288;2024-02-21T05:18:30;5.60;99.90
32201;DHT22;18701;45.588;5.288;2024-02-21T05:20:56;5.60;99.90
32201;DHT22;18701;45.588;5.288;2024-02-21T05:23:21;5.70;99.90
32201;DHT22;18701;45.588;5.288;2024-02-21T05:25:47;5.60;99.90
32201;DHT22;18701;45.588;5.288;2024-02-21T05:28:13;5.80;99.90
32201;DHT22;18701;45.588;5.288;2024-02-21T05:30:38;5.50;99.90
32201;DHT22;18701;45.588;5.288;2024-02-21T05:33:05;5.70;99.90
32201;DHT22;18701;45.588;5.288;2024-02-21T05:35:31;5.70;99.90
32201;DHT22;18701;45.588;5.288;2024-02-21T05:37:57;5.80;99.90
32201;DHT22;18701;45.588;5.288;2024-02-21T05:40:22;5.70;99.90
32201;DHT22;18701;45.588;5.288;2024-02-21T05:42:48;5.50;99.90
32201;DHT22;18701;45.588;5.288;2024-02-21T05:45:14;5.60;99.90
32201;DHT22;18701;45.588;5.288;2024-02-21T05:47:41;5.70;99.90
32201;DHT22;18701;45.588;5.288;2024-02-21T05:50:07;5.80;99.90
32201;DHT22;18701;45.588;5.288;2024-02-21T05:52:32;5.80;99.90
32201;DHT22;18701;45.588;5.288;2024-02-21T05:54:58;5.80;99.90
32201;DHT22;18701;45.588;5.288;2024-02-21T05:57:23;5.80;99.90
32201;DHT22;18701;45.588;5.288;2024-02-21T05:59:49;5.70;99.90
32201;DHT22;18701;45.588;5.288;2024-02-21T06:02:14;5.80;99.90
32201;DHT22;18701;45.588;5.288;2024-02-21T06:04:40;5.70;99.90
32201;DHT22;18701;45.588;5.288;2024-02-21T06:07:08;5.70;99.90
32201;DHT22;18701;45.588;5.288;2024-02-21T06:09:33;5.60;99.90
32201;DHT22;18701;45.588;5.288;2024-02-21T06:11:59;5.80;99.90
32201;DHT22;18701;45.588;5.288;2024-02-21T06:14:25;5.80;99.90
32201;DHT22;18701;45.588;5.288;2024-02-21T06:16:50;5.80;99.90
32201;DHT22;18701;45.588;5.288;2024-02-21T06:19:16;5.80;99.90
32201;DHT22;18701;45.588;5.288;2024-02-21T06:21:42;5.80;99.90
32201;DHT22;18701;45.588;5.288;2024-02-21T06:24:07;5.70;99.90
32201;DHT22;18701;45.588;5.288;2024-02-21T06:26:33;5.70;99.90
32201;DHT22;18701;45.588;5.288;2024-02-21T06:28:58;5.60;99.90
32201;DHT22;18701;45.588;5.288;2024-02-21T06:31:28;5.70;99.90
32201;DHT22;18701;45.588;5.288;2024-02-21T06:33:54;5.80;99.90
32201;DHT22;18701;45.588;5.288;2024-02-21T06:36:19;5.70;99.90
32201;DHT22;18701;45.588;5.288;2024-02-21T06:38:45;5.40;99.90
32201;DHT22;18701;45.588;5.288;2024-02-21T06:41:17;5.50;99.90
32201;DHT22;18701;45.588;5.288;2024-02-21T06:43:45;5.60;99.90
32201;DHT22;18701;45.588;5.288;2024-02-21T06:46:11;5.40;99.90
32201;DHT22;18701;45.588;5.288;2024-02-21T06:48:37;5.60;99.90
32201;DHT22;18701;45.588;5.288;2024-02-21T06:51:03;5.50;99.90
32201;DHT22;18701;45.588;5.288;2024-02-21T06:53:28;5.40;99.90
32201;DHT22;18701;45.588;5.288;2024-02-21T06:55:54;5.60;99.90
32201;DHT22;18701;45.588;5.288;2024-02-21T06:58:20;5.70;99.90
32201;DHT22;18701;45.588;5.288;2024-02-21T07:00:45;5.60;99.90
32201;DHT22;18701;45.588;5.288;2024-02-21T07:03:11;5.60;99.90
32201;DHT22;18701;45.588;5.288;2024-02-21T07:05:36;5.60;99.90
32201;DHT22;18701;45.588;5.288;2024-02-21T07:08:02;5.60;99.90
32201;DHT22;18701;45.588;5.288;2024-02-21T07:10:28;5.70;99.90
32201;DHT22;18701;45.588;5.288;2024-02-21T07:12:55;5.70;99.90
32201;DHT22;18701;45.588;5.288;2024-02-21T07:15:20;5.80;99.90
32201;DHT22;18701;45.588;5.288;2024-02-21T07:17:46;5.80;99.90
32201;DHT22;18701;45.588;5.288;2024-02-21T07:20:12;5.90;99.90
32201;DHT22;18701;45.588;5.288;2024-02-21T07:22:37;6.00;99.90
32201;DHT22;18701;45.588;5.288;2024-02-21T07:25:03;6.00;99.90
32201;DHT22;18701;45.588;5.288;2024-02-21T07:27:29;6.10;99.90
32201;DHT22;18701;45.588;5.288;2024-02-21T07:29:57;6.10;99.90
32201;DHT22;18701;45.588;5.288;2024-02-21T07:32:22;6.10;99.90
32201;DHT22;18701;45.588;5.288;2024-02-21T07:34:48;6.20;99.90
32201;DHT22;18701;45.588;5.288;2024-02-21T07:37:14;6.10;99.90
32201;DHT22;18701;45.588;5.288;2024-02-21T07:39:39;6.10;99.90
32201;DHT22;18701;45.588;5.288;2024-02-21T07:42:05;6.10;99.90
32201;DHT22;18701;45.588;5.288;2024-02-21T07:44:31;6.10;99.90
32201;DHT22;18701;45.588;5.288;2024-02-21T07:46:58;6.20;99.90
32201;DHT22;18701;45.588;5.288;2024-02-21T07:49:24;6.40;99.90
32201;DHT22;18701;45.588;5.288;2024-02-21T07:51:49;6.30;99.90
32201;DHT22;18701;45.588;5.288;2024-02-21T07:54:15;6.30;99.90
32201;DHT22;18701;45.588;5.288;2024-02-21T07:56:41;6.30;99.90
32201;DHT22;18701;45.588;5.288;2024-02-21T07:59:06;6.20;99.90
32201;DHT22;18701;45.588;5.288;2024-02-21T08:01:33;6.30;99.90
32201;DHT22;18701;45.588;5.288;2024-02-21T08:03:58;6.30;99.90
32201;DHT22;18701;45.588;5.288;2024-02-21T08:06:25;6.30;99.90
32201;DHT22;18701;45.588;5.288;2024-02-21T08:08:50;6.40;99.90
32201;DHT22;18701;45.588;5.288;2024-02-21T08:11:16;6.60;99.90
32201;DHT22;18701;45.588;5.288;2024-02-21T08:13:41;6.60;99.90
32201;DHT22;18701;45.588;5.288;2024-02-21T08:16:07;6.60;99.90
32201;DHT22;18701;45.588;5.288;2024-02-21T08:18:33;6.70;99.90
32201;DHT22;18701;45.588;5.288;2024-02-21T08:21:03;6.70;99.90
32201;DHT22;18701;45.588;5.288;2024-02-21T08:23:28;6.80;99.90
32201;DHT22;18701;45.588;5.288;2024-02-21T08:25:54;6.80;99.90
32201;DHT22;18701;45.588;5.288;2024-02-21T08:28:20;6.80;99.90
32201;DHT22;18701;45.588;5.288;2024-02-21T08:30:45;6.80;99.90
32201;DHT22;18701;45.588;5.288;2024-02-21T08:33:16;6.80;99.90
32201;DHT22;18701;45.588;5.288;2024-02-21T08:35:42;6.80;99.90
32201;DHT22;18701;45.588;5.288;2024-02-21T08:38:08;6.80;99.90
32201;DHT22;18701;45.588;5.288;2024-02-21T08:40:33;6.70;99.90
32201;DHT22;18701;45.588;5.288;2024-02-21T08:43:00;6.70;99.90
32201;DHT22;18701;45.588;5.288;2024-02-21T08:45:26;6.90;99.90
32201;DHT22;18701;45.588;5.288;2024-02-21T08:47:51;6.90;99.90
32201;DHT22;18701;45.588;5.288;2024-02-21T08:50:18;6.80;99.90
32201;DHT22;18701;45.588;5.288;2024-02-21T08:52:44;6.90;99.90
32201;DHT22;18701;45.588;5.288;2024-02-21T08:55:09;7.00;99.90
32201;DHT22;18701;45.588;5.288;2024-02-21T08:57:35;7.20;99.90
32201;DHT22;18701;45.588;5.288;2024-02-21T09:00:04;7.20;99.90
32201;DHT22;18701;45.588;5.288;2024-02-21T09:02:41;7.20;99.90
32201;DHT22;18701;45.588;5.288;2024-02-21T09:05:11;7.40;99.90
32201;DHT22;18701;45.588;5.288;2024-02-21T09:07:36;7.70;99.90
32201;DHT22;18701;45.588;5.288;2024-02-21T09:10:02;7.80;99.90
32201;DHT22;18701;45.588;5.288;2024-02-21T09:12:28;7.90;99.90
32201;DHT22;18701;45.588;5.288;2024-02-21T09:14:54;8.00;99.90
32201;DHT22;18701;45.588;5.288;2024-02-21T09:17:20;8.10;99.90
32201;DHT22;18701;45.588;5.288;2024-02-21T09:19:47;8.20;99.90
32201;DHT22;18701;45.588;5.288;2024-02-21T09:22:13;8.40;99.90
32201;DHT22;18701;45.588;5.288;2024-02-21T09:24:39;8.70;99.90
32201;DHT22;18701;45.588;5.288;2024-02-21T09:27:04;8.90;99.90
32201;DHT22;18701;45.588;5.288;2024-02-21T09:29:31;9.00;99.90
32201;DHT22;18701;45.588;5.288;2024-02-21T09:31:59;9.10;99.90
32201;DHT22;18701;45.588;5.288;2024-02-21T09:34:24;9.30;99.90
32201;DHT22;18701;45.588;5.288;2024-02-21T09:36:50;9.50;99.90
32201;DHT22;18701;45.588;5.288;2024-02-21T09:39:15;9.70;99.90
32201;DHT22;18701;45.588;5.288;2024-02-21T09:41:48;9.90;99.90
32201;DHT22;18701;45.588;5.288;2024-02-21T09:44:19;10.10;99.90
32201;DHT22;18701;45.588;5.288;2024-02-21T09:46:57;10.40;99.90
32201;DHT22;18701;45.588;5.288;2024-02-21T09:49:32;10.50;99.90
32201;DHT22;18701;45.588;5.288;2024-02-21T09:52:00;10.60;99.90
32201;DHT22;18701;45.588;5.288;2024-02-21T09:54:28;10.60;99.90
32201;DHT22;18701;45.588;5.288;2024-02-21T09:56:54;10.80;99.90
32201;DHT22;18701;45.588;5.288;2024-02-21T09:59:20;11.00;99.90
32201;DHT22;18701;45.588;5.288;2024-02-21T10:01:46;11.20;99.90
32201;DHT22;18701;45.588;5.288;2024-02-21T10:04:15;11.30;99.90
32201;DHT22;18701;45.588;5.288;2024-02-21T10:06:41;11.50;99.90
32201;DHT22;18701;45.588;5.288;2024-02-21T10:09:07;11.50;99.90
32201;DHT22;18701;45.588;5.288;2024-02-21T10:11:33;11.30;99.90
32201;DHT22;18701;45.588;5.288;2024-02-21T10:14:05;11.30;99.90
32201;DHT22;18701;45.588;5.288;2024-02-21T10:16:31;11.50;99.90
32201;DHT22;18701;45.588;5.288;2024-02-21T10:18:57;11.70;99.90
32201;DHT22;18701;45.588;5.288;2024-02-21T10:21:22;11.60;99.90
32201;DHT22;18701;45.588;5.288;2024-02-21T10:23:49;11.60;99.90
32201;DHT22;18701;45.588;5.288;2024-02-21T10:26:17;11.80;99.90
32201;DHT22;18701;45.588;5.288;2024-02-21T10:28:43;12.10;99.90
32201;DHT22;18701;45.588;5.288;2024-02-21T10:31:11;11.90;99.90
32201;DHT22;18701;45.588;5.288;2024-02-21T10:33:37;12.00;99.90
32201;DHT22;18701;45.588;5.288;2024-02-21T10:36:10;12.00;99.90
32201;DHT22;18701;45.588;5.288;2024-02-21T10:38:39;12.10;99.90
32201;DHT22;18701;45.588;5.288;2024-02-21T10:41:10;12.20;99.90
32201;DHT22;18701;45.588;5.288;2024-02-21T10:43:40;12.20;99.90
32201;DHT22;18701;45.588;5.288;2024-02-21T10:46:09;12.30;99.90
32201;DHT22;18701;45.588;5.288;2024-02-21T10:48:45;12.50;99.90
32201;DHT22;18701;45.588;5.288;2024-02-21T10:51:17;12.60;99.90
32201;DHT22;18701;45.588;5.288;2024-02-21T10:56:32;12.80;99.90
32201;DHT22;18701;45.588;5.288;2024-02-21T10:59:07;13.00;99.90
32201;DHT22;18701;45.588;5.288;2024-02-21T11:01:32;13.10;99.90
32201;DHT22;18701;45.588;5.288;2024-02-21T11:04:03;13.20;99.90
32201;DHT22;18701;45.588;5.288;2024-02-21T11:06:29;13.40;99.90
32201;DHT22;18701;45.588;5.288;2024-02-21T11:09:09;13.50;99.90
32201;DHT22;18701;45.588;5.288;2024-02-21T11:11:39;13.40;99.90
32201;DHT22;18701;45.588;5.288;2024-02-21T11:16:39;13.90;99.90
32201;DHT22;18701;45.588;5.288;2024-02-21T11:19:20;14.00;99.90
32201;DHT22;18701;45.588;5.288;2024-02-21T11:21:45;14.00;99.90
32201;DHT22;18701;45.588;5.288;2024-02-21T11:24:13;14.20;99.90
32201;DHT22;18701;45.588;5.288;2024-02-21T11:26:40;14.50;99.90
32201;DHT22;18701;45.588;5.288;2024-02-21T11:29:08;14.70;99.90
32201;DHT22;18701;45.588;5.288;2024-02-21T11:31:44;14.80;99.90
32201;DHT22;18701;45.588;5.288;2024-02-21T11:34:11;15.30;99.90
32201;DHT22;18701;45.588;5.288;2024-02-21T11:36:51;15.50;99.90
32201;DHT22;18701;45.588;5.288;2024-02-21T11:39:26;15.90;99.90
32201;DHT22;18701;45.588;5.288;2024-02-21T11:42:01;15.90;99.90
32201;DHT22;18701;45.588;5.288;2024-02-21T11:44:27;16.10;99.90
32201;DHT22;18701;45.588;5.288;2024-02-21T11:46:53;16.20;99.90
32201;DHT22;18701;45.588;5.288;2024-02-21T11:49:18;16.00;99.90
32201;DHT22;18701;45.588;5.288;2024-02-21T11:51:44;16.20;99.90
32201;DHT22;18701;45.588;5.288;2024-02-21T11:54:11;16.30;99.90
32201;DHT22;18701;45.588;5.288;2024-02-21T11:56:38;16.70;98.80
32201;DHT22;18701;45.588;5.288;2024-02-21T11:59:04;16.20;98.00
32201;DHT22;18701;45.588;5.288;2024-02-21T12:01:31;16.00;98.10
32201;DHT22;18701;45.588;5.288;2024-02-21T12:03:57;15.70;98.10
32201;DHT22;18701;45.588;5.288;2024-02-21T12:06:23;15.90;98.10
32201;DHT22;18701;45.588;5.288;2024-02-21T12:08:48;16.00;97.40
32201;DHT22;18701;45.588;5.288;2024-02-21T12:11:19;15.70;98.00
32201;DHT22;18701;45.588;5.288;2024-02-21T12:13:46;15.20;97.60
32201;DHT22;18701;45.588;5.288;2024-02-21T12:16:15;15.00;98.00
32201;DHT22;18701;45.588;5.288;2024-02-21T12:18:41;15.00;97.60
32201;DHT22;18701;45.588;5.288;2024-02-21T12:21:07;14.90;98.20
32201;DHT22;18701;45.588;5.288;2024-02-21T12:23:33;14.80;98.30
32201;DHT22;18701;45.588;5.288;2024-02-21T12:25:59;14.90;98.60
32201;DHT22;18701;45.588;5.288;2024-02-21T12:28:25;15.00;98.60
32201;DHT22;18701;45.588;5.288;2024-02-21T12:30:51;15.10;98.50
32201;DHT22;18701;45.588;5.288;2024-02-21T12:33:18;15.20;98.60
32201;DHT22;18701;45.588;5.288;2024-02-21T12:35:43;15.20;98.70
32201;DHT22;18701;45.588;5.288;2024-02-21T12:38:09;15.00;98.70
32201;DHT22;18701;45.588;5.288;2024-02-21T12:40:35;15.00;98.70
32201;DHT22;18701;45.588;5.288;2024-02-21T12:43:00;15.00;99.00
32201;DHT22;18701;45.588;5.288;2024-02-21T12:45:28;15.10;98.60
32201;DHT22;18701;45.588;5.288;2024-02-21T12:47:54;14.90;99.10
32201;DHT22;18701;45.588;5.288;2024-02-21T12:50:19;14.90;99.50
32201;DHT22;18701;45.588;5.288;2024-02-21T12:52:46;15.00;98.50
32201;DHT22;18701;45.588;5.288;2024-02-21T12:55:11;15.00;98.80
32201;DHT22;18701;45.588;5.288;2024-02-21T12:57:39;15.10;98.50
32201;DHT22;18701;45.588;5.288;2024-02-21T13:00:05;15.20;99.30
32201;DHT22;18701;45.588;5.288;2024-02-21T13:02:34;15.00;97.70
32201;DHT22;18701;45.588;5.288;2024-02-21T13:05:00;15.20;98.10
32201;DHT22;18701;45.588;5.288;2024-02-21T13:07:28;15.50;97.80
32201;DHT22;18701;45.588;5.288;2024-02-21T13:09:53;15.40;97.60
32201;DHT22;18701;45.588;5.288;2024-02-21T13:12:19;15.50;97.30
32201;DHT22;18701;45.588;5.288;2024-02-21T13:14:45;15.50;97.50
32201;DHT22;18701;45.588;5.288;2024-02-21T13:17:11;15.50;96.10
32201;DHT22;18701;45.588;5.288;2024-02-21T13:19:36;15.40;96.40
32201;DHT22;18701;45.588;5.288;2024-02-21T13:22:02;15.40;96.40
32201;DHT22;18701;45.588;5.288;2024-02-21T13:24:29;15.30;95.90
32201;DHT22;18701;45.588;5.288;2024-02-21T13:26:55;15.20;96.10
32201;DHT22;18701;45.588;5.288;2024-02-21T13:29:21;15.50;96.90
32201;DHT22;18701;45.588;5.288;2024-02-21T13:31:46;15.70;95.40
32201;DHT22;18701;45.588;5.288;2024-02-21T13:34:12;15.80;95.10
32201;DHT22;18701;45.588;5.288;2024-02-21T13:36:38;16.70;94.70
32201;DHT22;18701;45.588;5.288;2024-02-21T13:39:03;17.30;94.00
32201;DHT22;18701;45.588;5.288;2024-02-21T13:41:38;17.80;93.00
32201;DHT22;18701;45.588;5.288;2024-02-21T13:44:03;18.40;92.40
32201;DHT22;18701;45.588;5.288;2024-02-21T13:46:29;19.00;91.30
32201;DHT22;18701;45.588;5.288;2024-02-21T13:49:03;18.30;90.80
32201;DHT22;18701;45.588;5.288;2024-02-21T13:51:35;17.50;91.50
32201;DHT22;18701;45.588;5.288;2024-02-21T13:54:02;17.70;91.70
32201;DHT22;18701;45.588;5.288;2024-02-21T13:56:29;17.20;91.40
32201;DHT22;18701;45.588;5.288;2024-02-21T13:58:55;16.90;92.00
32201;DHT22;18701;45.588;5.288;2024-02-21T14:01:20;16.60;92.40
32201;DHT22;18701;45.588;5.288;2024-02-21T14:03:46;16.50;92.50
32201;DHT22;18701;45.588;5.288;2024-02-21T14:06:12;16.20;92.90
32201;DHT22;18701;45.588;5.288;2024-02-21T14:08:38;16.20;93.40
32201;DHT22;18701;45.588;5.288;2024-02-21T14:11:05;15.80;93.40
32201;DHT22;18701;45.588;5.288;2024-02-21T14:13:31;15.80;93.10
32201;DHT22;18701;45.588;5.288;2024-02-21T14:15:57;15.60;93.00
32201;DHT22;18701;45.588;5.288;2024-02-21T14:18:22;15.50;93.60
32201;DHT22;18701;45.588;5.288;2024-02-21T14:20:48;15.40;93.60
32201;DHT22;18701;45.588;5.288;2024-02-21T14:23:14;15.30;94.40
32201;DHT22;18701;45.588;5.288;2024-02-21T14:25:39;15.40;94.00
32201;DHT22;18701;45.588;5.288;2024-02-21T14:28:07;15.30;94.10
32201;DHT22;18701;45.588;5.288;2024-02-21T14:30:35;15.30;94.10
32201;DHT22;18701;45.588;5.288;2024-02-21T14:33:00;15.40;94.60
32201;DHT22;18701;45.588;5.288;2024-02-21T14:35:26;15.20;94.70
32201;DHT22;18701;45.588;5.288;2024-02-21T14:37:52;15.20;94.60
32201;DHT22;18701;45.588;5.288;2024-02-21T14:40:18;15.20;94.70
32201;DHT22;18701;45.588;5.288;2024-02-21T14:42:45;15.20;94.40
32201;DHT22;18701;45.588;5.288;2024-02-21T14:45:11;15.20;94.40
32201;DHT22;18701;45.588;5.288;2024-02-21T14:47:37;15.20;94.30
32201;DHT22;18701;45.588;5.288;2024-02-21T14:50:03;15.20;94.30
32201;DHT22;18701;45.588;5.288;2024-02-21T14:52:30;15.20;94.10
32201;DHT22;18701;45.588;5.288;2024-02-21T14:54:56;15.40;93.90
32201;DHT22;18701;45.588;5.288;2024-02-21T14:57:22;15.30;93.60
32201;DHT22;18701;45.588;5.288;2024-02-21T14:59:48;15.60;93.70
32201;DHT22;18701;45.588;5.288;2024-02-21T15:02:22;15.70;93.90
32201;DHT22;18701;45.588;5.288;2024-02-21T15:04:48;15.60;93.80
32201;DHT22;18701;45.588;5.288;2024-02-21T15:07:14;15.50;93.50
32201;DHT22;18701;45.588;5.288;2024-02-21T15:09:39;15.40;94.10
32201;DHT22;18701;45.588;5.288;2024-02-21T15:12:05;15.40;94.20
32201;DHT22;18701;45.588;5.288;2024-02-21T15:14:31;15.20;93.90
32201;DHT22;18701;45.588;5.288;2024-02-21T15:16:57;15.20;94.30
32201;DHT22;18701;45.588;5.288;2024-02-21T15:19:23;15.00;94.40
32201;DHT22;18701;45.588;5.288;2024-02-21T15:21:48;14.90;94.90
32201;DHT22;18701;45.588;5.288;2024-02-21T15:24:14;15.00;94.80
32201;DHT22;18701;45.588;5.288;2024-02-21T15:26:39;14.90;95.00
32201;DHT22;18701;45.588;5.288;2024-02-21T15:29:05;14.80;94.90
32201;DHT22;18701;45.588;5.288;2024-02-21T15:31:30;14.80;95.30
32201;DHT22;18701;45.588;5.288;2024-02-21T15:33:56;14.90;95.30
32201;DHT22;18701;45.588;5.288;2024-02-21T15:36:22;14.80;95.50
32201;DHT22;18701;45.588;5.288;2024-02-21T15:38:47;14.80;95.50
32201;DHT22;18701;45.588;5.288;2024-02-21T15:41:13;14.70;95.60
32201;DHT22;18701;45.588;5.288;2024-02-21T15:43:39;14.60;95.80